Time;durP1;ratioP1;P1;durP2;ratioP2;P2;SDS_P1;SDS_P2;PMS_P1;PMS_P2;Temp;Humidity;BMP_temperature;BMP_pressure;BME280_temperature;BME280_humidity;BME280_pressure;Samples;Min_cycle;Max_cycle;Signal;HPM_P1;HPM_P2
2024/04/12 00:00:21;;;;;;;3.55;0.70;;;16.20;99.90;;;;;;4198479;28;20052;-70
2024/04/12 00:02:26;;;;;;;1.00;0.63;;;16.20;99.90;;;;;;4202459;28;20045;-69
2024/04/12 00:04:27;;;;;;;;;;;16.10;99.90;;;;;;4204502;28;20049;-71
2024/04/12 00:06:30;;;;;;;1.00;0.80;;;16.00;99.90;;;;;;4203003;28;19931;-76
2024/04/12 00:08:34;;;;;;;1.55;0.60;;;16.10;99.90;;;;;;4200660;28;20103;-66
2024/04/12 00:10:37;;;;;;;1.77;1.42;;;16.10;99.90;;;;;;4199373;28;20056;-68
2024/04/12 00:12:38;;;;;;;1.33;0.77;;;16.10;99.90;;;;;;4198781;28;20045;-69
2024/04/12 00:14:43;;;;;;;1.00;0.90;;;16.10;99.90;;;;;;4198051;28;20209;-66
2024/04/12 00:16:50;;;;;;;;;;;16.10;99.90;;;;;;4198799;28;20131;-66
2024/04/12 00:19:06;;;;;;;0.95;0.65;;;16.10;99.90;;;;;;4198323;28;19926;-66
2024/04/12 00:21:08;;;;;;;0.80;0.60;;;16.00;99.90;;;;;;4198302;28;20048;-64
2024/04/12 00:23:12;;;;;;;2.63;1.05;;;16.00;99.90;;;;;;4197932;28;20060;-67
2024/04/12 00:25:14;;;;;;;1.48;0.82;;;15.90;99.90;;;;;;4198172;28;20045;-66
2024/04/12 00:27:15;;;;;;;0.63;0.50;;;16.00;99.90;;;;;;4198163;28;20067;-67
2024/04/12 00:29:26;;;;;;;1.13;0.70;;;15.90;99.90;;;;;;4197580;28;20431;-70
2024/04/12 00:31:27;;;;;;;0.70;0.70;;;15.90;99.90;;;;;;4198013;28;20111;-66
2024/04/12 00:33:32;;;;;;;0.98;0.88;;;15.90;99.90;;;;;;4197869;28;20044;-67
2024/04/12 00:35:34;;;;;;;;;;;15.90;99.90;;;;;;4182136;28;20049;-69
2024/04/12 00:37:35;;;;;;;2.08;0.80;;;15.90;99.90;;;;;;4197853;28;19928;-69
2024/04/12 00:39:38;;;;;;;4.03;2.00;;;15.80;99.90;;;;;;4198226;28;20048;-67
2024/04/12 00:41:42;;;;;;;1.90;0.60;;;15.70;99.90;;;;;;4198079;28;20056;-69
2024/04/12 00:43:45;;;;;;;1.15;0.90;;;15.70;99.90;;;;;;4180986;28;20063;-68
2024/04/12 00:45:54;;;;;;;0.82;0.40;;;15.80;99.90;;;;;;4197741;28;20047;-69
2024/04/12 00:47:55;;;;;;;1.45;1.35;;;16.00;99.90;;;;;;4197643;28;20114;-69
2024/04/12 00:50:00;;;;;;;0.70;0.70;;;16.10;99.90;;;;;;4197765;28;20049;-68
2024/04/12 00:52:04;;;;;;;0.85;0.85;;;16.20;99.90;;;;;;4197604;28;20044;-67
2024/04/12 00:54:07;;;;;;;2.35;0.85;;;16.40;99.90;;;;;;4197478;28;20087;-67
2024/04/12 00:56:12;;;;;;;0.75;0.65;;;16.40;99.90;;;;;;4197644;28;20544;-68
2024/04/12 00:58:15;;;;;;;3.40;1.40;;;16.50;99.90;;;;;;4197388;28;20048;-69
2024/04/12 01:00:19;;;;;;;0.90;0.50;;;16.40;99.90;;;;;;4197477;28;20096;-68
2024/04/12 01:02:23;;;;;;;0.90;0.60;;;16.40;99.90;;;;;;4197520;28;20127;-69
2024/04/12 01:04:26;;;;;;;0.90;0.90;;;16.30;99.90;;;;;;4197369;28;20514;-69
2024/04/12 01:06:30;;;;;;;1.77;0.80;;;16.20;99.90;;;;;;4197474;28;20048;-70
2024/04/12 01:08:31;;;;;;;0.70;0.65;;;16.20;99.90;;;;;;4197303;28;20513;-69
2024/04/12 01:10:36;;;;;;;1.00;0.68;;;16.10;99.90;;;;;;4197232;28;20041;-69
2024/04/12 01:12:37;;;;;;;;;;;16.00;99.90;;;;;;4197650;28;20049;-70
2024/04/12 01:14:40;;;;;;;1.15;0.60;;;16.00;99.90;;;;;;4197516;28;19966;-68
2024/04/12 01:16:42;;;;;;;0.68;0.60;;;16.00;99.90;;;;;;4196768;28;20056;-66
2024/04/12 01:18:45;;;;;;;1.70;0.80;;;15.90;99.90;;;;;;4197302;28;20063;-67
2024/04/12 01:20:46;;;;;;;1.20;0.77;;;15.90;99.90;;;;;;4197097;28;20488;-68
2024/04/12 01:22:47;;;;;;;0.60;0.55;;;15.90;99.90;;;;;;4196846;28;20053;-67
2024/04/12 01:24:50;;;;;;;1.08;0.98;;;16.00;99.90;;;;;;4197102;28;20479;-67
2024/04/12 01:26:53;;;;;;;2.45;0.70;;;16.00;99.90;;;;;;4196771;28;20053;-68
2024/04/12 01:28:56;;;;;;;0.85;0.52;;;16.00;99.90;;;;;;4196996;28;20437;-69
2024/04/12 01:30:59;;;;;;;0.90;0.70;;;16.20;99.90;;;;;;4197144;28;20049;-69
2024/04/12 01:33:01;;;;;;;0.40;0.40;;;16.20;99.90;;;;;;4197070;28;20056;-69
2024/04/12 01:35:03;;;;;;;1.17;0.45;;;16.30;99.90;;;;;;4180356;28;20049;-68
2024/04/12 01:37:04;;;;;;;1.73;0.50;;;16.30;99.90;;;;;;4197072;28;20087;-69
2024/04/12 01:39:11;;;;;;;0.70;0.57;;;16.30;99.90;;;;;;4196948;28;20086;-69
2024/04/12 01:41:14;;;;;;;2.00;0.43;;;16.30;99.90;;;;;;4196582;28;20041;-69
2024/04/12 01:43:18;;;;;;;0.70;0.70;;;16.20;99.90;;;;;;4196915;28;20044;-69
2024/04/12 01:45:26;;;;;;;0.95;0.85;;;16.10;99.90;;;;;;4196949;28;20044;-72
2024/04/12 01:47:34;;;;;;;1.17;0.88;;;16.00;99.90;;;;;;4196745;28;20052;-69
2024/04/12 01:49:43;;;;;;;3.50;0.50;;;16.00;99.90;;;;;;4196555;28;20057;-69
2024/04/12 01:51:47;;;;;;;0.57;0.50;;;16.00;99.90;;;;;;4196554;28;20486;-67
2024/04/12 01:53:54;;;;;;;3.25;0.98;;;16.00;99.90;;;;;;4196837;28;20044;-67
2024/04/12 01:55:58;;;;;;;0.80;0.75;;;16.00;99.90;;;;;;4196168;28;20405;-66
2024/04/12 01:58:01;;;;;;;1.05;0.93;;;16.00;99.90;;;;;;4196649;28;20118;-67
2024/04/12 02:00:02;;;;;;;1.17;0.60;;;15.90;99.90;;;;;;4196381;28;20050;-66
2024/04/12 02:02:04;;;;;;;1.23;0.70;;;15.90;99.90;;;;;;4196526;28;20482;-66
2024/04/12 02:04:07;;;;;;;0.98;0.82;;;15.70;99.90;;;;;;4196331;28;20044;-68
2024/04/12 02:06:09;;;;;;;1.88;0.40;;;15.80;99.90;;;;;;4181396;28;20044;-66
2024/04/12 02:08:16;;;;;;;1.48;0.82;;;15.80;99.90;;;;;;4197443;28;20048;-68
2024/04/12 02:10:22;;;;;;;0.43;0.43;;;15.90;99.90;;;;;;4197810;28;20041;-68
2024/04/12 02:12:26;;;;;;;0.70;0.50;;;15.90;99.90;;;;;;4197707;28;20044;-68
2024/04/12 02:14:29;;;;;;;3.10;0.80;;;15.90;99.90;;;;;;4198032;28;20445;-68
2024/04/12 02:16:31;;;;;;;1.05;0.50;;;16.00;99.90;;;;;;4197285;28;20507;-66
2024/04/12 02:18:33;;;;;;;1.75;0.80;;;16.00;99.90;;;;;;4196835;28;20485;-70
2024/04/12 02:20:34;;;;;;;1.02;0.85;;;16.00;99.90;;;;;;4196881;28;20190;-66
2024/04/12 02:22:37;;;;;;;0.55;0.50;;;15.90;99.90;;;;;;4180035;28;20067;-65
2024/04/12 02:24:40;;;;;;;0.40;0.40;;;15.80;99.90;;;;;;4196333;28;20045;-66
2024/04/12 02:26:42;;;;;;;2.55;0.85;;;15.70;99.90;;;;;;4196597;28;20048;-67
2024/04/12 02:28:43;;;;;;;1.23;0.70;;;15.70;99.90;;;;;;4195829;28;20053;-66
2024/04/12 02:30:54;;;;;;;1.00;0.90;;;15.70;99.90;;;;;;4196495;28;20053;-66
2024/04/12 02:32:57;;;;;;;0.75;0.35;;;15.60;99.90;;;;;;4196355;28;20051;-67
2024/04/12 02:34:58;;;;;;;2.22;0.50;;;15.70;99.90;;;;;;4196299;28;20429;-66
2024/04/12 02:37:01;;;;;;;3.10;1.63;;;15.50;99.90;;;;;;4196374;28;20044;-66
2024/04/12 02:39:06;;;;;;;1.65;1.40;;;15.50;99.90;;;;;;4196486;28;20048;-66
2024/04/12 02:41:14;;;;;;;1.48;0.85;;;15.40;99.90;;;;;;4196204;28;20053;-67
2024/04/12 02:43:16;;;;;;;1.05;0.80;;;15.40;99.90;;;;;;4179744;28;20049;-66
2024/04/12 02:45:17;;;;;;;1.15;0.80;;;15.40;99.90;;;;;;4196159;28;20652;-65
2024/04/12 02:47:19;;;;;;;1.33;0.95;;;15.50;99.90;;;;;;4196227;28;20056;-65
2024/04/12 02:49:21;;;;;;;0.40;0.40;;;15.40;99.90;;;;;;4195906;28;20547;-67
2024/04/12 02:51:22;;;;;;;1.77;0.50;;;15.50;99.90;;;;;;4196480;28;20059;-65
2024/04/12 02:53:24;;;;;;;2.08;1.05;;;15.40;99.90;;;;;;4196821;28;20055;-66
2024/04/12 02:55:30;;;;;;;0.82;0.70;;;15.40;99.90;;;;;;4196291;28;20041;-68
2024/04/12 02:57:32;;;;;;;3.13;1.15;;;15.40;99.90;;;;;;4196046;28;20064;-66
2024/04/12 02:59:34;;;;;;;2.60;0.57;;;15.50;99.90;;;;;;4195873;28;20052;-70
2024/04/12 03:01:36;;;;;;;2.80;0.60;;;15.50;99.90;;;;;;4196250;28;20041;-68
2024/04/12 03:03:45;;;;;;;0.40;0.40;;;15.40;99.90;;;;;;4196413;28;20118;-66
2024/04/12 03:05:46;;;;;;;1.48;0.50;;;15.40;99.90;;;;;;4196210;28;20526;-66
2024/04/12 03:07:48;;;;;;;1.50;1.27;;;15.30;99.90;;;;;;4196405;28;20055;-67
2024/04/12 03:09:53;;;;;;;1.63;0.77;;;15.30;99.90;;;;;;4196338;28;20067;-67
2024/04/12 03:11:54;;;;;;;0.75;0.45;;;15.30;99.90;;;;;;4196572;28;20076;-67
2024/04/12 03:14:03;;;;;;;0.70;0.70;;;15.30;99.90;;;;;;4196947;28;20049;-66
2024/04/12 03:16:13;;;;;;;0.88;0.85;;;15.30;99.90;;;;;;4181909;28;20052;-66
2024/04/12 03:18:15;;;;;;;2.10;0.80;;;15.20;99.90;;;;;;4198349;28;20052;-68
2024/04/12 03:20:18;;;;;;;0.88;0.65;;;15.20;99.90;;;;;;4200457;28;20441;-70
2024/04/12 03:22:20;;;;;;;1.85;0.73;;;15.20;99.90;;;;;;4201305;28;20045;-69
2024/04/12 03:24:22;;;;;;;0.82;0.60;;;15.20;99.90;;;;;;4199835;28;20425;-67
2024/04/12 03:26:24;;;;;;;2.10;0.85;;;15.20;99.90;;;;;;4197579;28;20044;-65
2024/04/12 03:28:25;;;;;;;0.90;0.40;;;15.10;99.90;;;;;;4197008;28;20086;-65
2024/04/12 03:30:26;;;;;;;2.47;0.60;;;15.10;99.90;;;;;;4197160;28;20544;-68
2024/04/12 03:32:32;;;;;;;5.40;1.65;;;15.10;99.90;;;;;;4197579;28;20273;-66
2024/04/12 03:34:36;;;;;;;2.83;0.93;;;15.00;99.90;;;;;;4198089;28;20055;-70
2024/04/12 03:38:39;;;;;;;0.93;0.82;;;14.90;99.90;;;;;;4199373;28;20048;-68
2024/04/12 03:40:45;;;;;;;0.50;0.50;;;14.90;99.90;;;;;;4198697;28;20110;-69
2024/04/12 03:42:46;;;;;;;0.65;0.50;;;14.80;99.90;;;;;;4199488;28;20070;-70
2024/04/12 03:44:48;;;;;;;1.38;0.60;;;14.90;99.90;;;;;;4199085;28;20044;-68
2024/04/12 03:46:50;;;;;;;0.73;0.57;;;15.00;99.90;;;;;;4199066;28;20052;-69
2024/04/12 03:48:53;;;;;;;3.28;0.95;;;15.00;99.90;;;;;;4199109;28;20052;-69
2024/04/12 03:51:00;;;;;;;1.33;0.98;;;15.00;99.90;;;;;;4199298;28;20083;-69
2024/04/12 03:53:14;;;;;;;1.27;0.65;;;14.90;99.90;;;;;;4197985;28;20044;-66
2024/04/12 03:55:16;;;;;;;2.13;0.82;;;14.90;99.90;;;;;;4181816;28;20049;-69
2024/04/12 03:57:18;;;;;;;1.30;1.08;;;14.90;99.90;;;;;;4198360;28;20525;-67
2024/04/12 03:59:21;;;;;;;1.02;0.70;;;14.90;99.90;;;;;;4198519;28;20052;-66
2024/04/12 04:01:22;;;;;;;1.10;1.00;;;14.90;99.90;;;;;;4198468;28;20117;-66
2024/04/12 04:03:32;;;;;;;4.03;0.80;;;15.00;99.90;;;;;;4198351;28;20044;-66
2024/04/12 04:05:34;;;;;;;5.00;1.15;;;14.90;99.90;;;;;;4198149;28;20062;-66
2024/04/12 04:07:38;;;;;;;0.98;0.60;;;14.80;99.90;;;;;;4197622;28;20048;-65
2024/04/12 04:09:42;;;;;;;1.73;0.80;;;14.80;99.90;;;;;;4197854;28;20044;-66
2024/04/12 04:11:43;;;;;;;0.73;0.50;;;14.70;99.90;;;;;;4198170;28;20094;-65
2024/04/12 04:13:47;;;;;;;1.45;1.15;;;14.80;99.90;;;;;;4198019;28;20095;-65
2024/04/12 04:15:55;;;;;;;3.83;2.13;;;14.80;99.90;;;;;;4181362;28;20049;-64
2024/04/12 04:18:01;;;;;;;1.15;0.85;;;14.80;99.90;;;;;;4197922;28;20063;-64
2024/04/12 04:20:06;;;;;;;0.88;0.73;;;14.90;99.90;;;;;;4181210;28;20048;-63
2024/04/12 04:22:21;;;;;;;;;;;15.10;99.90;;;;;;4197826;28;20040;-66
2024/04/12 04:24:24;;;;;;;1.08;0.77;;;15.10;99.90;;;;;;4197934;28;19920;-64
2024/04/12 04:26:27;;;;;;;1.45;0.95;;;15.20;99.90;;;;;;4181192;28;20049;-64
2024/04/12 04:28:30;;;;;;;1.15;0.60;;;15.20;99.90;;;;;;4197504;28;20059;-66
2024/04/12 04:30:35;;;;;;;1.45;1.27;;;15.20;99.90;;;;;;4197831;28;20060;-66
2024/04/12 04:32:36;;;;;;;0.65;0.60;;;15.10;99.90;;;;;;4197701;28;20052;-65
2024/04/12 04:34:44;;;;;;;1.73;0.75;;;15.10;99.90;;;;;;4181455;28;20045;-66
2024/04/12 04:36:49;;;;;;;1.88;0.50;;;15.20;99.90;;;;;;4197155;28;20045;-66
2024/04/12 04:38:50;;;;;;;2.92;0.57;;;15.20;99.90;;;;;;4198020;28;20486;-66
2024/04/12 04:40:57;;;;;;;1.88;0.90;;;15.20;99.90;;;;;;4197844;28;20052;-66
2024/04/12 04:43:00;;;;;;;2.22;0.55;;;15.20;99.90;;;;;;4181623;28;20045;-70
2024/04/12 04:45:01;;;;;;;0.63;0.50;;;15.20;99.90;;;;;;4197895;28;20402;-71
2024/04/12 04:47:03;;;;;;;1.05;0.50;;;15.20;99.90;;;;;;4197945;28;20048;-66
2024/04/12 04:49:04;;;;;;;0.68;0.55;;;15.20;99.90;;;;;;4197996;28;20053;-66
2024/04/12 04:51:07;;;;;;;1.17;0.43;;;15.10;99.90;;;;;;4196836;28;20048;-67
2024/04/12 04:53:11;;;;;;;5.50;1.48;;;15.10;99.90;;;;;;4197534;28;20074;-66
2024/04/12 04:55:12;;;;;;;0.60;0.38;;;15.10;99.90;;;;;;4197381;28;20102;-66
2024/04/12 04:57:15;;;;;;;0.70;0.65;;;15.10;99.90;;;;;;4197370;28;20056;-67
2024/04/12 04:59:18;;;;;;;1.33;0.73;;;15.10;99.90;;;;;;4197239;28;20466;-69
2024/04/12 05:01:19;;;;;;;1.10;0.82;;;15.10;99.90;;;;;;4197848;28;20127;-68
2024/04/12 05:03:20;;;;;;;0.85;0.60;;;15.00;99.90;;;;;;4198480;28;20040;-67
2024/04/12 05:05:27;;;;;;;1.10;0.68;;;14.90;99.90;;;;;;4198811;28;20044;-67
2024/04/12 05:07:34;;;;;;;1.75;0.50;;;14.90;99.90;;;;;;4198389;28;20041;-67
2024/04/12 05:09:35;;;;;;;0.80;0.70;;;14.80;99.90;;;;;;4197822;28;20055;-72
2024/04/12 05:11:38;;;;;;;3.95;0.70;;;14.90;99.90;;;;;;4197712;28;20041;-67
2024/04/12 05:13:39;;;;;;;2.20;0.90;;;14.90;99.90;;;;;;4197391;28;20041;-69
2024/04/12 05:17:43;;;;;;;0.73;0.70;;;14.90;99.90;;;;;;4197114;28;20041;-66
2024/04/12 05:19:44;;;;;;;2.38;0.82;;;14.90;99.90;;;;;;4197203;28;20476;-65
2024/04/12 05:21:45;;;;;;;1.75;1.00;;;14.90;99.90;;;;;;4197175;28;20477;-65
2024/04/12 05:23:48;;;;;;;1.35;0.63;;;14.80;99.90;;;;;;4196745;28;20048;-66
2024/04/12 05:25:50;;;;;;;0.85;0.82;;;14.80;99.90;;;;;;4196977;28;20191;-66
2024/04/12 05:27:51;;;;;;;0.93;0.68;;;14.90;99.90;;;;;;4196798;28;20048;-66
2024/04/12 05:29:54;;;;;;;0.82;0.80;;;14.90;99.90;;;;;;4180172;28;20044;-65
2024/04/12 05:31:57;;;;;;;0.70;0.60;;;15.00;99.90;;;;;;4196692;28;20056;-66
2024/04/12 05:34:01;;;;;;;0.40;0.40;;;15.00;99.90;;;;;;4196177;28;20048;-66
2024/04/12 05:36:02;;;;;;;1.92;0.98;;;15.00;99.90;;;;;;4196804;28;20548;-66
2024/04/12 05:38:09;;;;;;;1.48;1.38;;;15.10;99.90;;;;;;4196766;28;20048;-67
2024/04/12 05:40:13;;;;;;;2.63;1.17;;;15.10;99.90;;;;;;4196836;28;20044;-65
2024/04/12 05:42:15;;;;;;;1.10;0.68;;;15.20;99.90;;;;;;4179856;28;20055;-64
2024/04/12 05:44:18;;;;;;;1.38;0.98;;;15.30;99.90;;;;;;4196333;28;20044;-67
2024/04/12 05:46:22;;;;;;;1.52;0.88;;;15.30;99.90;;;;;;4196402;28;20044;-65
2024/04/12 05:48:26;;;;;;;1.75;0.60;;;15.30;99.90;;;;;;4195913;28;20049;-66
2024/04/12 05:50:27;;;;;;;2.58;0.88;;;15.40;99.90;;;;;;4196551;28;20052;-65
2024/04/12 05:52:29;;;;;;;1.20;1.10;;;15.50;99.90;;;;;;4196375;28;20048;-65
2024/04/12 05:54:39;;;;;;;2.00;1.23;;;15.40;99.90;;;;;;4196347;28;20453;-66
2024/04/12 05:56:43;;;;;;;1.35;0.80;;;15.40;99.90;;;;;;4196312;28;20045;-66
2024/04/12 05:58:44;;;;;;;0.95;0.55;;;15.50;99.90;;;;;;4196279;28;20064;-66
2024/04/12 06:00:49;;;;;;;2.25;0.50;;;15.50;99.90;;;;;;4196202;28;20416;-66
2024/04/12 06:02:50;;;;;;;2.15;1.15;;;15.50;99.90;;;;;;4195544;28;20044;-66
2024/04/12 06:04:55;;;;;;;1.23;0.73;;;15.50;99.90;;;;;;4195600;28;20051;-67
2024/04/12 06:06:59;;;;;;;3.95;1.10;;;15.50;99.90;;;;;;4196039;28;20045;-65
2024/04/12 06:09:05;;;;;;;0.63;0.57;;;15.50;99.90;;;;;;4195979;28;20055;-68
2024/04/12 06:11:09;;;;;;;0.68;0.50;;;15.60;99.90;;;;;;4196167;28;20101;-66
2024/04/12 06:13:11;;;;;;;4.05;1.27;;;15.60;99.90;;;;;;4196282;28;20044;-66
2024/04/12 06:15:15;;;;;;;1.08;0.95;;;15.70;99.90;;;;;;4196228;28;20048;-66
2024/04/12 06:17:17;;;;;;;1.15;0.88;;;15.70;99.90;;;;;;4179414;28;20048;-67
2024/04/12 06:19:19;;;;;;;1.98;0.85;;;15.80;99.90;;;;;;4179668;28;20379;-66
2024/04/12 06:21:22;;;;;;;0.70;0.70;;;15.90;99.90;;;;;;4195885;28;20098;-67
2024/04/12 06:23:23;;;;;;;0.82;0.77;;;16.00;99.90;;;;;;4195803;28;20056;-69
2024/04/12 06:25:25;;;;;;;9.27;1.60;;;16.00;99.90;;;;;;4196405;28;20114;-66
2024/04/12 06:27:29;;;;;;;0.60;0.60;;;16.00;99.90;;;;;;4196714;28;20182;-68
2024/04/12 06:29:33;;;;;;;1.77;1.02;;;16.00;99.90;;;;;;4196263;28;20044;-65
2024/04/12 06:31:34;;;;;;;1.05;0.70;;;16.00;99.90;;;;;;4196043;28;20513;-68
2024/04/12 06:33:35;;;;;;;1.27;0.93;;;16.00;99.90;;;;;;4196320;28;20060;-66
2024/04/12 06:35:37;;;;;;;1.65;0.50;;;16.00;99.90;;;;;;4196078;28;20052;-66
2024/04/12 06:37:39;;;;;;;0.95;0.60;;;16.10;99.90;;;;;;4195659;28;20055;-67
2024/04/12 06:39:43;;;;;;;1.50;1.00;;;16.20;99.90;;;;;;4196702;28;20399;-66
2024/04/12 06:41:45;;;;;;;0.73;0.63;;;16.30;99.90;;;;;;4197382;28;20051;-68
2024/04/12 06:43:48;;;;;;;0.85;0.60;;;16.30;99.90;;;;;;4197187;28;20041;-70
2024/04/12 06:45:57;;;;;;;1.48;0.63;;;16.40;99.90;;;;;;4196546;28;20052;-67
2024/04/12 06:47:58;;;;;;;1.15;0.60;;;16.50;99.90;;;;;;4196401;28;20045;-67
2024/04/12 06:50:08;;;;;;;0.50;0.47;;;16.50;99.90;;;;;;4195922;28;20055;-67
2024/04/12 06:52:09;;;;;;;0.75;0.45;;;16.40;99.90;;;;;;4195742;28;20056;-67
2024/04/12 06:54:11;;;;;;;1.15;0.63;;;16.40;99.90;;;;;;4196135;28;20052;-67
2024/04/12 06:56:16;;;;;;;1.60;0.68;;;16.40;99.90;;;;;;4196170;28;20129;-69
2024/04/12 06:58:17;;;;;;;1.08;0.60;;;16.50;99.90;;;;;;4195843;28;20495;-66
2024/04/12 07:00:20;;;;;;;0.80;0.50;;;16.60;99.90;;;;;;4178893;28;20045;-66
2024/04/12 07:02:23;;;;;;;2.90;1.15;;;16.70;99.90;;;;;;4195900;28;20044;-70
2024/04/12 07:04:28;;;;;;;0.40;0.38;;;16.70;99.90;;;;;;4195704;28;20132;-66
2024/04/12 07:06:32;;;;;;;1.02;0.40;;;16.80;99.90;;;;;;4195735;28;20045;-68
2024/04/12 07:08:33;;;;;;;1.33;0.63;;;16.80;99.90;;;;;;4195644;28;20402;-66
2024/04/12 07:10:36;;;;;;;0.60;0.40;;;16.90;99.90;;;;;;4195765;28;20078;-66
2024/04/12 07:12:38;;;;;;;0.70;0.57;;;16.90;99.90;;;;;;4195679;28;20056;-66
2024/04/12 07:14:41;;;;;;;1.10;0.98;;;16.90;99.90;;;;;;4196279;28;20090;-67
2024/04/12 07:16:43;;;;;;;2.30;1.10;;;17.00;99.90;;;;;;4198924;28;20531;-66
2024/04/12 07:18:44;;;;;;;0.73;0.60;;;17.10;99.90;;;;;;4198950;28;20068;-67
2024/04/12 07:20:45;;;;;;;1.02;0.40;;;17.10;99.90;;;;;;4198905;28;20118;-66
2024/04/12 07:22:46;;;;;;;0.57;0.57;;;17.20;99.90;;;;;;4198548;28;20513;-66
2024/04/12 07:24:50;;;;;;;1.15;0.60;;;17.30;99.90;;;;;;4198629;28;20094;-66
2024/04/12 07:26:55;;;;;;;1.38;0.90;;;17.30;99.90;;;;;;4198846;28;20049;-67
2024/04/12 07:29:01;;;;;;;5.85;0.63;;;17.40;99.90;;;;;;4181805;28;20048;-66
2024/04/12 07:31:05;;;;;;;1.95;0.60;;;17.40;99.90;;;;;;4198162;28;20052;-65
2024/04/12 07:33:06;;;;;;;1.92;1.00;;;17.40;99.90;;;;;;4198607;28;20134;-67
2024/04/12 07:35:24;;;;;;;0.90;0.50;;;17.50;99.90;;;;;;4198431;28;20080;-66
2024/04/12 07:37:31;;;;;;;1.05;0.55;;;17.60;99.90;;;;;;4198574;28;20049;-65
2024/04/12 07:39:33;;;;;;;0.75;0.50;;;17.80;99.90;;;;;;4198334;28;20052;-67
2024/04/12 07:41:43;;;;;;;2.47;1.05;;;18.00;99.80;;;;;;4181780;28;20049;-66
2024/04/12 07:43:46;;;;;;;2.28;0.68;;;18.10;99.70;;;;;;4198054;28;20044;-65
2024/04/12 07:45:49;;;;;;;1.20;1.10;;;18.20;99.10;;;;;;4198570;28;20071;-63
2024/04/12 07:47:55;;;;;;;3.50;1.05;;;18.30;99.20;;;;;;4198157;28;20052;-64
2024/04/12 07:49:56;;;;;;;0.88;0.60;;;18.40;99.20;;;;;;4198316;28;20045;-67
2024/04/12 07:52:01;;;;;;;2.10;1.17;;;18.40;99.00;;;;;;4198459;28;20417;-66
2024/04/12 07:54:05;;;;;;;0.98;0.70;;;18.50;98.70;;;;;;4198083;28;20048;-67
2024/04/12 07:56:14;;;;;;;0.50;0.40;;;18.50;98.90;;;;;;4198529;28;20117;-66
2024/04/12 07:58:15;;;;;;;1.02;0.60;;;18.50;98.80;;;;;;4197944;28;20151;-67
2024/04/12 08:00:27;;;;;;;0.77;0.73;;;18.40;98.50;;;;;;4181824;28;20045;-68
2024/04/12 08:02:35;;;;;;;1.58;1.10;;;18.50;98.50;;;;;;4198191;28;20052;-67
2024/04/12 08:04:45;;;;;;;3.15;0.60;;;18.60;98.70;;;;;;4198241;28;20051;-66
2024/04/12 08:09:03;;;;;;;2.40;0.90;;;19.00;98.00;;;;;;4198711;28;20055;-66
2024/04/12 08:11:11;;;;;;;0.93;0.70;;;19.00;97.50;;;;;;4198498;28;20045;-69
2024/04/12 08:13:23;;;;;;;2.13;0.60;;;19.00;97.70;;;;;;4198782;28;20453;-67
2024/04/12 08:15:25;;;;;;;2.78;1.10;;;19.10;97.80;;;;;;4199092;28;20410;-67
2024/04/12 08:17:28;;;;;;;1.48;1.08;;;19.30;97.60;;;;;;4198517;28;20048;-67
2024/04/12 08:19:38;;;;;;;2.30;0.63;;;19.50;97.40;;;;;;4198580;28;20049;-67
2024/04/12 08:21:41;;;;;;;1.17;0.63;;;19.50;97.40;;;;;;4198250;28;20048;-66
2024/04/12 08:23:45;;;;;;;1.63;1.00;;;19.70;97.40;;;;;;4197740;28;20080;-66
2024/04/12 08:25:48;;;;;;;1.67;0.60;;;19.80;97.10;;;;;;4198114;28;20130;-65
2024/04/12 08:27:54;;;;;;;1.48;0.60;;;19.90;96.70;;;;;;4180575;28;20060;-68
2024/04/12 08:29:55;;;;;;;5.15;1.38;;;19.90;96.70;;;;;;4197595;28;20045;-67
2024/04/12 08:31:59;;;;;;;1.65;0.70;;;19.80;96.50;;;;;;4197996;28;20049;-67
2024/04/12 08:34:03;;;;;;;2.03;0.50;;;19.70;96.70;;;;;;4197825;28;20379;-65
2024/04/12 08:36:10;;;;;;;1.65;0.50;;;19.80;96.80;;;;;;4197683;28;20445;-66
2024/04/12 08:38:12;;;;;;;1.42;0.50;;;20.00;96.80;;;;;;4197810;28;20052;-66
2024/04/12 08:40:19;;;;;;;1.20;0.50;;;20.00;96.40;;;;;;4197638;28;20044;-67
2024/04/12 08:42:32;;;;;;;1.35;0.50;;;20.00;96.10;;;;;;4197685;28;20052;-67
2024/04/12 08:44:35;;;;;;;2.45;0.70;;;20.10;96.60;;;;;;4199189;28;20490;-68
2024/04/12 08:46:37;;;;;;;1.38;0.70;;;20.20;96.10;;;;;;4198128;28;20048;-65
2024/04/12 08:48:41;;;;;;;0.90;0.70;;;20.30;96.20;;;;;;4197307;28;20427;-66
2024/04/12 08:50:48;;;;;;;0.68;0.68;;;20.40;95.60;;;;;;4197466;28;20114;-67
2024/04/12 08:52:52;;;;;;;2.38;0.77;;;20.40;95.80;;;;;;4197290;28;20097;-66
2024/04/12 08:54:54;;;;;;;1.47;0.73;;;20.40;96.10;;;;;;4197208;28;20052;-66
2024/04/12 08:56:55;;;;;;;1.08;0.30;;;20.30;95.80;;;;;;4196862;28;20048;-67
2024/04/12 08:59:05;;;;;;;0.88;0.50;;;20.10;95.30;;;;;;4197250;28;20490;-67
2024/04/12 09:01:06;;;;;;;2.85;1.35;;;20.20;95.80;;;;;;4197388;28;20455;-66
2024/04/12 09:03:10;;;;;;;3.35;0.60;;;20.40;96.10;;;;;;4197158;28;20131;-66
2024/04/12 09:05:14;;;;;;;0.50;0.43;;;20.40;95.30;;;;;;4197071;28;20044;-67
2024/04/12 09:07:15;;;;;;;1.35;0.38;;;20.40;95.10;;;;;;4197306;28;20114;-66
2024/04/12 09:09:17;;;;;;;1.08;0.47;;;20.40;95.70;;;;;;4197365;28;20091;-69
2024/04/12 09:11:19;;;;;;;2.05;0.50;;;20.50;95.40;;;;;;4196908;28;20045;-66
2024/04/12 09:13:22;;;;;;;0.82;0.45;;;20.70;95.30;;;;;;4197205;28;20132;-70
2024/04/12 09:15:27;;;;;;;3.05;1.05;;;20.70;95.30;;;;;;4197058;28;20045;-70
2024/04/12 09:17:29;;;;;;;0.77;0.60;;;20.80;95.30;;;;;;4197498;28;20055;-65
2024/04/12 09:19:38;;;;;;;1.58;0.60;;;20.90;95.30;;;;;;4197207;28;20044;-67
2024/04/12 09:21:58;;;;;;;0.50;0.22;;;20.90;94.80;;;;;;4197102;28;20044;-67
2024/04/12 09:24:09;;;;;;;1.05;0.85;;;20.90;94.30;;;;;;4180100;28;20517;-65
2024/04/12 09:26:23;;;;;;;2.00;0.93;;;21.00;94.30;;;;;;4196989;28;20045;-67
2024/04/12 09:28:32;;;;;;;3.72;0.20;;;21.10;93.80;;;;;;4180069;28;20087;-66
2024/04/12 09:33:00;;;;;;;1.50;0.50;;;21.10;94.10;;;;;;4180524;28;20049;-64
2024/04/12 09:35:04;;;;;;;4.25;0.40;;;21.10;93.60;;;;;;4180888;28;20045;-64
2024/04/12 09:39:57;;;;;;;1.20;0.50;;;21.10;93.80;;;;;;4181444;28;20049;-67
2024/04/12 09:42:02;;;;;;;1.40;0.30;;;21.10;93.90;;;;;;4181181;28;20052;-65
2024/04/12 09:44:04;;;;;;;2.00;0.77;;;20.90;93.30;;;;;;4165178;28;20107;-66
2024/04/12 09:46:08;;;;;;;1.00;0.55;;;21.00;93.30;;;;;;4181603;28;20451;-65
2024/04/12 10:38:00;;;;;;;0.50;0.22;;;21.80;90.60;;;;;;4145335;28;20042;-64
2024/04/12 10:40:04;;;;;;;1.25;0.75;;;21.90;91.30;;;;;;4175497;28;20052;-64
2024/04/12 10:42:07;;;;;;;0.45;0.38;;;21.90;91.50;;;;;;4179970;28;20044;-64
2024/04/12 10:44:10;;;;;;;0.47;0.35;;;21.90;90.80;;;;;;4179706;28;20138;-64
2024/04/12 10:46:12;;;;;;;1.20;0.50;;;21.90;90.60;;;;;;4179474;28;20041;-64
2024/04/12 10:48:18;;;;;;;0.25;0.20;;;21.90;90.60;;;;;;4179077;28;20045;-64
2024/04/12 10:50:21;;;;;;;0.20;0.20;;;22.00;90.70;;;;;;4178458;28;20056;-65
2024/04/12 10:52:28;;;;;;;0.40;0.40;;;22.00;90.40;;;;;;4162732;28;20086;-64
2024/04/12 10:54:32;;;;;;;2.70;0.73;;;22.10;91.20;;;;;;4179372;28;20045;-65
2024/04/12 10:56:35;;;;;;;4.30;1.60;;;22.00;90.40;;;;;;4179433;28;20045;-64
2024/04/12 10:58:47;;;;;;;0.32;0.20;;;22.10;90.40;;;;;;4179371;28;20056;-65
2024/04/12 11:00:48;;;;;;;1.17;0.40;;;22.20;90.60;;;;;;4183788;28;20452;-68
2024/04/12 11:02:54;;;;;;;0.57;0.30;;;22.20;90.80;;;;;;4194233;28;20055;-65
2024/04/12 11:07:16;;;;;;;0.30;0.20;;;22.20;90.90;;;;;;4195909;28;20041;-65
2024/04/12 11:09:17;;;;;;;0.52;0.45;;;22.30;90.80;;;;;;4193410;28;20041;-63
2024/04/12 11:11:26;;;;;;;0.65;0.40;;;22.30;90.40;;;;;;4194210;28;20473;-69
2024/04/12 11:13:35;;;;;;;1.10;0.63;;;22.40;91.00;;;;;;4195813;28;20078;-64
2024/04/12 11:31:48;;;;;;;0.55;0.43;;;22.70;89.10;;;;;;4187657;28;20417;-65
2024/04/12 11:33:52;;;;;;;0.95;0.40;;;22.70;89.80;;;;;;4188604;28;20471;-64
2024/04/12 11:35:53;;;;;;;0.53;0.30;;;22.60;89.80;;;;;;4182161;28;20491;-65
2024/04/12 11:37:55;;;;;;;0.50;0.20;;;22.70;90.10;;;;;;4173438;28;20041;-65
2024/04/12 11:39:56;;;;;;;1.20;0.43;;;22.70;88.90;;;;;;4195006;28;20092;-64
2024/04/12 11:42:00;;;;;;;0.52;0.20;;;22.60;89.10;;;;;;4186785;28;20040;-65
2024/04/12 11:44:05;;;;;;;1.65;0.20;;;22.60;89.50;;;;;;4185138;28;20078;-64
2024/04/12 11:46:08;;;;;;;0.85;0.30;;;22.60;87.80;;;;;;4195294;28;20044;-64
2024/04/12 11:48:14;;;;;;;1.48;0.65;;;22.60;89.10;;;;;;4195037;28;20055;-65
2024/04/12 11:50:16;;;;;;;0.30;0.13;;;22.70;89.40;;;;;;4213686;28;20567;-64
2024/04/12 11:52:17;;;;;;;0.90;0.30;;;22.70;88.60;;;;;;4196484;28;20150;-64
2024/04/12 11:54:22;;;;;;;0.13;0.13;;;22.80;88.20;;;;;;4183189;28;20048;-64
2024/04/12 11:56:23;;;;;;;1.27;0.30;;;22.90;88.70;;;;;;4180071;28;20049;-65
2024/04/12 11:58:25;;;;;;;0.30;0.25;;;22.90;87.70;;;;;;4194551;28;20567;-64
2024/04/12 12:00:27;;;;;;;0.57;0.45;;;22.90;86.80;;;;;;4208969;28;20040;-64
2024/04/12 12:02:31;;;;;;;0.40;0.20;;;22.90;88.80;;;;;;4189798;28;20462;-63
2024/04/12 12:04:34;;;;;;;0.20;0.20;;;22.90;88.10;;;;;;4181362;28;20048;-63